createdAt,value
2019-05-11T00:00:34.107Z,4.07
2019-05-11T00:03:07.421Z,3.90
2019-05-11T00:05:38.339Z,3.27
2019-05-11T00:08:10.272Z,3.00
2019-05-11T00:10:42.664Z,5.43
2019-05-11T00:13:13.394Z,3.13
2019-05-11T00:15:45.045Z,4.07
2019-05-11T00:18:15.995Z,2.77
2019-05-11T00:20:46.984Z,3.33
2019-05-11T00:23:21.149Z,2.83
2019-05-11T00:25:51.777Z,2.70
2019-05-11T00:28:22.300Z,2.60
2019-05-11T00:30:52.967Z,2.80
2019-05-11T00:33:23.774Z,2.60
2019-05-11T00:35:57.084Z,3.00
2019-05-11T00:38:28.060Z,5.50
2019-05-11T00:41:08.390Z,3.37
2019-05-11T00:43:38.945Z,4.13
2019-05-11T00:46:14.103Z,3.33
2019-05-11T00:48:47.319Z,4.00
2019-05-11T00:51:23.370Z,3.40
2019-05-11T00:53:53.958Z,5.67
2019-05-11T00:56:27.648Z,3.87
2019-05-11T00:58:58.657Z,3.93
2019-05-11T01:01:32.343Z,3.90
2019-05-11T01:04:07.164Z,4.70
2019-05-11T01:06:43.265Z,4.10
2019-05-11T01:09:16.998Z,3.30
2019-05-11T01:11:49.079Z,3.53
2019-05-11T01:14:19.615Z,3.27
2019-05-11T01:16:53.544Z,3.83
2019-05-11T01:19:24.383Z,3.30
2019-05-11T01:21:55.021Z,3.67
2019-05-11T01:24:25.518Z,3.67
2019-05-11T01:26:56.122Z,4.00
2019-05-11T01:29:26.650Z,4.87
2019-05-11T01:31:57.256Z,4.43
2019-05-11T01:34:28.377Z,5.23
2019-05-11T01:36:58.996Z,4.00
2019-05-11T01:39:30.036Z,3.77
2019-05-11T01:42:00.749Z,4.20
2019-05-11T01:44:31.258Z,3.43
2019-05-11T01:47:02.216Z,3.70
2019-05-11T01:49:32.794Z,3.70
2019-05-11T01:52:03.440Z,3.03
2019-05-11T01:54:34.266Z,3.50
2019-05-11T01:57:04.821Z,3.63
2019-05-11T01:59:35.433Z,3.27
2019-05-11T02:02:06.271Z,4.30
2019-05-11T02:04:36.810Z,3.90
2019-05-11T02:07:07.360Z,3.40
2019-05-11T02:09:37.975Z,3.17
2019-05-11T02:12:10.955Z,4.47
2019-05-11T02:14:42.170Z,3.40
2019-05-11T02:17:12.679Z,3.70
2019-05-11T02:19:46.051Z,5.13
2019-05-11T02:22:16.868Z,3.13
2019-05-11T02:24:47.501Z,3.20
2019-05-11T02:27:18.080Z,3.00
2019-05-11T02:29:48.940Z,2.90
2019-05-11T02:32:19.568Z,3.50
2019-05-11T02:34:50.103Z,3.90
2019-05-11T02:37:22.255Z,4.03
2019-05-11T02:39:55.384Z,3.53
2019-05-11T02:42:26.265Z,3.40
2019-05-11T02:44:57.776Z,3.20
2019-05-11T02:47:28.227Z,6.17
2019-05-11T02:49:58.835Z,2.87
2019-05-11T02:52:30.240Z,3.43
2019-05-11T02:55:01.909Z,4.30
2019-05-11T02:57:32.528Z,3.13
2019-05-11T03:00:03.185Z,3.73
2019-05-11T03:02:33.903Z,3.80
2019-05-11T03:05:06.667Z,4.80
2019-05-11T03:07:37.286Z,4.40
2019-05-11T03:10:07.936Z,4.40
2019-05-11T03:12:39.239Z,4.20
2019-05-11T03:15:11.586Z,4.77
2019-05-11T03:17:42.129Z,5.60
2019-05-11T03:20:12.742Z,5.17
2019-05-11T03:22:43.353Z,6.90
2019-05-11T03:25:14.357Z,5.60
2019-05-11T03:27:44.939Z,4.30
2019-05-11T03:30:15.827Z,3.77
2019-05-11T03:32:46.424Z,4.63
2019-05-11T03:35:17.076Z,4.17
2019-05-11T03:37:47.709Z,4.37
2019-05-11T03:40:18.836Z,3.80
2019-05-11T03:42:49.470Z,5.73
2019-05-11T03:45:20.175Z,3.60
2019-05-11T03:47:50.816Z,4.40
2019-05-11T03:50:21.611Z,4.10
2019-05-11T03:52:52.269Z,4.40
2019-05-11T03:55:23.037Z,6.00
2019-05-11T03:57:53.678Z,5.10
2019-05-11T04:00:24.483Z,3.40
2019-05-11T04:02:58.103Z,6.03
2019-05-11T04:05:28.597Z,6.07
2019-05-11T04:07:59.829Z,4.30
2019-05-11T04:10:30.457Z,4.60
2019-05-11T04:13:01.309Z,4.47
2019-05-11T04:15:34.021Z,4.47
2019-05-11T04:18:04.633Z,5.10
2019-05-11T04:20:37.936Z,4.07
2019-05-11T04:23:08.738Z,4.40
2019-05-11T04:25:39.272Z,5.17
2019-05-11T04:28:09.716Z,5.47
2019-05-11T04:30:40.853Z,4.37
2019-05-11T04:33:11.381Z,5.03
2019-05-11T04:35:42.318Z,4.00
2019-05-11T04:38:12.827Z,6.10
2019-05-11T04:40:43.426Z,4.27
2019-05-11T04:43:14.028Z,6.67
2019-05-11T04:45:44.651Z,5.73
2019-05-11T04:48:15.214Z,4.70
2019-05-11T04:50:48.992Z,4.00
2019-05-11T04:53:19.607Z,5.73
2019-05-11T04:55:50.113Z,5.07
2019-05-11T04:58:20.832Z,5.27
2019-05-11T05:00:51.557Z,5.03
2019-05-11T05:03:39.331Z,5.17
2019-05-11T05:05:55.145Z,5.67
2019-05-11T05:08:26.536Z,5.60
2019-05-11T05:11:00.794Z,7.60
2019-05-11T05:13:32.413Z,4.57
2019-05-11T05:16:06.204Z,5.53
2019-05-11T05:18:40.012Z,6.13
2019-05-11T05:21:10.622Z,5.53
2019-05-11T05:23:43.871Z,5.07
2019-05-11T05:26:15.190Z,4.43
2019-05-11T05:28:46.163Z,5.20
2019-05-11T05:31:16.897Z,5.40
2019-05-11T05:33:47.457Z,5.53
2019-05-11T05:36:19.563Z,9.27
2019-05-11T05:38:50.167Z,9.10
2019-05-11T05:41:20.808Z,5.60
2019-05-11T05:43:51.395Z,6.03
2019-05-11T05:46:22.337Z,8.97
2019-05-11T05:48:52.968Z,7.73
2019-05-11T05:51:23.818Z,5.47
2019-05-11T05:53:54.409Z,5.73
2019-05-11T05:56:24.932Z,7.30
2019-05-11T05:58:56.113Z,5.97
2019-05-11T06:01:26.789Z,6.37
2019-05-11T06:03:57.625Z,6.77
2019-05-11T06:06:28.313Z,6.30
2019-05-11T06:08:58.822Z,6.20
2019-05-11T06:11:31.044Z,7.17
2019-05-11T06:14:02.197Z,7.73
2019-05-11T06:16:33.335Z,6.90
2019-05-11T06:19:05.014Z,5.63
2019-05-11T06:21:35.956Z,6.87
2019-05-11T06:24:08.307Z,10.67
2019-05-11T06:26:41.045Z,6.67
2019-05-11T06:29:16.565Z,6.90
2019-05-11T06:31:47.185Z,6.73
2019-05-11T06:34:17.699Z,7.13
2019-05-11T06:36:48.340Z,6.13
2019-05-11T06:39:19.168Z,9.43
2019-05-11T06:41:53.015Z,9.43
2019-05-11T06:44:23.600Z,8.00
2019-05-11T06:46:54.138Z,6.77
2019-05-11T06:49:24.932Z,7.20
2019-05-11T06:52:14.733Z,7.90
2019-05-11T06:54:48.153Z,8.83
2019-05-11T06:57:20.267Z,6.37
2019-05-11T06:59:50.891Z,9.00
2019-05-11T07:02:21.664Z,7.63
2019-05-11T07:05:07.093Z,9.50
2019-05-11T07:07:47.153Z,10.80
2019-05-11T07:10:13.422Z,12.90
2019-05-11T07:12:55.637Z,15.83
2019-05-11T07:15:35.346Z,12.63
2019-05-11T07:18:08.088Z,10.97
2019-05-11T07:20:49.943Z,10.30
2019-05-11T07:23:34.288Z,11.03
2019-05-11T07:35:58.726Z,7.63
2019-05-11T07:38:31.834Z,7.80
2019-05-11T07:41:03.101Z,10.23
2019-05-11T07:43:33.585Z,7.97
2019-05-11T07:46:24.267Z,8.67
2019-05-11T07:49:11.425Z,10.90
2019-05-11T07:51:45.294Z,8.87
2019-05-11T07:54:18.872Z,11.87
2019-05-11T07:56:53.368Z,10.27
2019-05-11T07:59:24.129Z,7.93
2019-05-11T08:02:08.820Z,8.30
2019-05-11T08:04:52.348Z,7.63
2019-05-11T08:07:28.532Z,7.60
2019-05-11T08:09:59.269Z,8.53
2019-05-11T08:12:34.447Z,7.93
2019-05-11T08:15:12.464Z,8.50
2019-05-11T08:17:45.853Z,9.87
2019-05-11T08:20:18.807Z,7.67
2019-05-11T08:22:49.634Z,8.27
2019-05-11T08:25:20.861Z,8.10
2019-05-11T08:27:52.083Z,9.37
2019-05-11T08:30:24.093Z,8.50
2019-05-11T08:32:54.830Z,9.90
2019-05-11T08:35:30.392Z,8.10
2019-05-11T08:37:58.483Z,7.67
2019-05-11T08:40:29.284Z,8.40
2019-05-11T08:43:00.088Z,8.07
2019-05-11T08:45:33.745Z,9.27
2019-05-11T08:48:08.144Z,8.33
2019-05-11T08:50:38.881Z,7.17
2019-05-11T08:53:17.873Z,7.77
2019-05-11T08:55:50.047Z,8.63
2019-05-11T08:58:21.126Z,8.37
2019-05-11T09:00:51.898Z,8.10
2019-05-11T09:03:22.648Z,8.50
2019-05-11T09:05:55.201Z,9.53
2019-05-11T09:08:29.507Z,6.87
2019-05-11T09:11:01.162Z,7.53
2019-05-11T09:13:35.601Z,8.50
2019-05-11T09:16:08.947Z,10.13
2019-05-11T09:18:45.234Z,8.40
2019-05-11T09:21:23.929Z,9.40
2019-05-11T09:23:57.816Z,8.67
2019-05-11T09:26:33.135Z,9.50
2019-05-11T09:29:05.157Z,8.30
2019-05-11T09:31:39.097Z,7.93
2019-05-11T09:34:11.371Z,8.10
2019-05-11T09:36:47.830Z,8.27
2019-05-11T09:39:19.821Z,10.07
2019-05-11T09:42:01.622Z,8.17
2019-05-11T09:44:42.755Z,9.97
2019-05-11T09:47:30.266Z,8.50
2019-05-11T09:50:12.358Z,8.13
2019-05-11T09:52:43.896Z,9.00
2019-05-11T09:55:21.083Z,11.40
2019-05-11T09:57:54.144Z,8.37
2019-05-11T10:00:28.235Z,9.23
2019-05-11T10:06:15.096Z,8.73
2019-05-11T10:09:11.898Z,8.03
2019-05-11T10:12:20.521Z,8.97
2019-05-11T10:14:59.277Z,12.83
2019-05-11T10:17:31.569Z,10.93
2019-05-11T10:20:04.555Z,9.20
2019-05-11T10:22:38.422Z,8.77
2019-05-11T10:25:09.336Z,7.77
2019-05-11T10:27:42.101Z,8.53
2019-05-11T10:30:13.333Z,8.83
2019-05-11T10:32:49.189Z,7.83
2019-05-11T10:35:20.086Z,7.80
2019-05-11T10:37:50.632Z,6.87
2019-05-11T10:40:21.573Z,8.17
2019-05-11T10:42:59.059Z,8.43
2019-05-11T10:45:31.177Z,10.27
2019-05-11T10:48:03.905Z,6.77
2019-05-11T10:50:38.214Z,7.10
2019-05-11T10:53:09.619Z,6.47
2019-05-11T10:55:41.627Z,7.23
2019-05-11T10:58:23.137Z,8.40
2019-05-11T11:00:54.107Z,7.23
2019-05-11T11:03:25.145Z,8.53
2019-05-11T11:05:57.968Z,8.20
2019-05-11T11:08:29.286Z,6.50
2019-05-11T11:11:01.626Z,6.37
2019-05-11T11:13:32.582Z,7.33
2019-05-11T11:16:03.143Z,7.37
2019-05-11T11:18:38.310Z,6.70
2019-05-11T11:21:22.845Z,6.30
2019-05-11T11:23:53.158Z,4.87
2019-05-11T11:26:37.796Z,5.83
2019-05-11T11:29:03.303Z,6.07
2019-05-11T11:31:38.008Z,5.00
2019-05-11T11:34:31.268Z,6.57
2019-05-11T11:37:28.515Z,5.43
2019-05-11T11:40:04.247Z,6.47
2019-05-11T11:42:37.900Z,6.50
2019-05-11T11:45:09.683Z,7.97
2019-05-11T11:47:41.496Z,7.70
2019-05-11T11:50:17.647Z,6.10
2019-05-11T11:52:52.271Z,7.30
2019-05-11T11:55:23.892Z,7.83
2019-05-11T11:57:54.763Z,6.20
2019-05-11T12:00:25.622Z,7.87
2019-05-11T12:02:58.009Z,8.80
2019-05-11T12:05:29.275Z,8.37
2019-05-11T12:08:00.016Z,8.30
2019-05-11T12:10:48.485Z,7.80
2019-05-11T12:13:38.981Z,6.23
2019-05-11T12:16:14.488Z,6.63
2019-05-11T12:18:45.323Z,7.17
2019-05-11T12:21:22.104Z,7.77
2019-05-11T12:23:53.307Z,6.53
2019-05-11T12:26:29.716Z,6.43
2019-05-11T12:29:00.349Z,5.80
2019-05-11T12:31:32.656Z,7.43
2019-05-11T12:34:04.333Z,6.77
2019-05-11T12:36:35.468Z,5.83
2019-05-11T12:39:08.933Z,5.57
2019-05-11T12:41:47.800Z,5.53
2019-05-11T12:44:29.535Z,4.40
2019-05-11T12:47:03.142Z,4.27
2019-05-11T12:49:34.086Z,3.53
2019-05-11T12:52:09.256Z,3.70
2019-05-11T12:54:59.390Z,3.60
2019-05-11T12:57:34.137Z,3.30
2019-05-11T13:00:08.747Z,2.77
2019-05-11T13:02:48.509Z,3.23
2019-05-11T13:05:28.350Z,3.20
2019-05-11T13:07:58.795Z,2.67
2019-05-11T13:10:38.684Z,2.70
2019-05-11T13:13:18.342Z,2.53
2019-05-11T13:15:52.348Z,3.23
2019-05-11T13:18:33.801Z,3.00
2019-05-11T13:21:20.206Z,3.53
2019-05-11T13:23:53.024Z,3.90
2019-05-11T13:26:35.290Z,2.47
2019-05-11T13:29:25.076Z,2.03
2019-05-11T13:32:01.795Z,2.10
2019-05-11T13:34:43.860Z,2.93
2019-05-11T13:37:15.134Z,2.27
2019-05-11T13:39:52.169Z,3.10
2019-05-11T13:42:30.106Z,2.80
2019-05-11T13:45:03.970Z,3.10
2019-05-11T13:47:52.673Z,2.63
2019-05-11T13:50:30.540Z,3.23
2019-05-11T13:53:04.270Z,3.53
2019-05-11T13:55:38.824Z,3.00
2019-05-11T13:58:13.661Z,3.07
2019-05-11T14:06:00.911Z,2.60
2019-05-11T14:08:58.881Z,2.57
2019-05-11T14:11:44.971Z,2.40
2019-05-11T14:14:22.088Z,2.50
2019-05-11T14:16:52.875Z,3.13
2019-05-11T14:19:23.661Z,2.73
2019-05-11T14:22:00.539Z,3.20
2019-05-11T14:24:37.648Z,3.33
2019-05-11T14:27:11.236Z,3.10
2019-05-11T14:29:48.686Z,3.27
2019-05-11T14:32:39.089Z,2.57
2019-05-11T14:35:18.861Z,3.43
2019-05-11T14:37:53.893Z,3.30
2019-05-11T14:40:31.586Z,2.67
2019-05-11T14:43:08.420Z,2.70
2019-05-11T14:45:48.621Z,2.97
2019-05-11T14:48:43.744Z,2.57
2019-05-11T14:51:18.454Z,3.20
2019-05-11T14:53:52.173Z,3.00
2019-05-11T14:56:38.618Z,3.93
2019-05-11T14:59:19.737Z,3.10
2019-05-11T15:01:59.064Z,3.67
2019-05-11T15:04:33.170Z,3.40
2019-05-11T15:07:08.556Z,3.50
2019-05-11T15:09:42.818Z,3.13
2019-05-11T15:12:13.585Z,3.60
2019-05-11T15:14:49.641Z,3.23
2019-05-11T15:17:51.096Z,4.00
2019-05-11T15:20:27.892Z,3.90
2019-05-11T15:22:59.743Z,3.83
2019-05-11T15:25:35.184Z,4.17
2019-05-11T15:28:09.084Z,4.10
2019-05-11T15:30:42.423Z,3.93
2019-05-11T15:33:14.442Z,3.03
2019-05-11T15:35:52.642Z,3.33
2019-05-11T15:38:28.407Z,3.43
2019-05-11T15:40:59.656Z,3.13
2019-05-11T15:43:33.178Z,3.47
2019-05-11T15:46:06.445Z,3.73
2019-05-11T15:48:55.783Z,3.50
2019-05-11T15:51:18.715Z,3.27
2019-05-11T15:53:50.332Z,3.83
2019-05-11T15:56:21.531Z,3.43
2019-05-11T15:58:53.384Z,3.67
2019-05-11T16:01:45.745Z,3.20
2019-05-11T16:04:19.736Z,3.50
2019-05-11T16:07:00.142Z,4.60
2019-05-11T16:09:32.369Z,5.37
2019-05-11T16:12:08.103Z,4.90
2019-05-11T16:14:39.871Z,5.43
2019-05-11T16:17:27.111Z,6.77
2019-05-11T16:20:03.701Z,6.33
2019-05-11T16:22:35.041Z,6.53
2019-05-11T16:25:08.566Z,8.53
2019-05-11T16:27:41.079Z,7.73
2019-05-11T16:30:23.098Z,7.50
2019-05-11T16:33:10.336Z,9.27
2019-05-11T16:36:00.508Z,9.07
2019-05-11T16:38:38.060Z,10.67
2019-05-11T16:41:29.134Z,9.47
2019-05-11T16:44:04.099Z,10.20
2019-05-11T16:46:48.004Z,9.80
2019-05-11T16:49:32.283Z,8.70
2019-05-11T16:52:02.890Z,9.90
2019-05-11T16:54:39.382Z,9.03
2019-05-11T16:57:10.321Z,9.87
2019-05-11T16:59:43.910Z,9.37
2019-05-11T17:02:14.952Z,9.53
2019-05-11T17:04:48.192Z,9.40
2019-05-11T17:07:19.832Z,10.20
2019-05-11T17:09:50.961Z,9.50
2019-05-11T17:12:28.634Z,9.93
2019-05-11T17:15:11.130Z,10.67
2019-05-11T17:17:43.450Z,10.37
2019-05-11T17:20:14.668Z,11.87
2019-05-11T17:22:56.692Z,11.87
2019-05-11T17:25:48.399Z,12.93
2019-05-11T17:28:19.291Z,10.07
2019-05-11T17:30:53.161Z,10.00
2019-05-11T17:33:25.552Z,8.57
2019-05-11T17:36:01.278Z,8.23
2019-05-11T17:38:35.115Z,7.70
2019-05-11T17:41:08.721Z,7.13
2019-05-11T17:43:39.802Z,6.00
2019-05-11T17:46:24.687Z,5.67
2019-05-11T17:49:07.849Z,5.50
2019-05-11T17:51:41.562Z,5.00
2019-05-11T17:54:14.687Z,6.03
2019-05-11T17:57:00.675Z,5.10
2019-05-11T17:59:34.958Z,5.17
2019-05-11T18:02:09.650Z,4.90
2019-05-11T18:04:58.300Z,4.50
2019-05-11T18:07:27.880Z,3.17
2019-05-11T18:09:58.601Z,2.97
2019-05-11T18:12:32.669Z,3.00
2019-05-11T18:15:07.963Z,3.17
2019-05-11T18:17:49.204Z,2.90
2019-05-11T18:20:41.134Z,3.70
2019-05-11T18:23:33.735Z,2.57
2019-05-11T18:26:08.650Z,2.63
2019-05-11T18:28:38.937Z,3.80
2019-05-11T18:31:14.265Z,2.80
2019-05-11T18:34:05.854Z,2.37
2019-05-11T18:36:39.405Z,2.93
2019-05-11T18:39:18.762Z,1.73
2019-05-11T18:41:49.559Z,1.77
2019-05-11T18:44:20.384Z,1.73
2019-05-11T18:46:53.610Z,1.47
2019-05-11T18:49:31.588Z,1.80
2019-05-11T18:52:08.253Z,1.93
2019-05-11T18:54:47.914Z,2.20
2019-05-11T18:57:30.094Z,2.70
2019-05-11T19:00:08.174Z,2.00
2019-05-11T19:02:43.780Z,2.20
2019-05-11T19:05:14.371Z,2.40
2019-05-11T19:07:45.105Z,2.27
2019-05-11T19:10:16.226Z,1.90
2019-05-11T19:12:54.163Z,2.33
2019-05-11T19:15:28.138Z,1.77
2019-05-11T19:17:58.770Z,2.20
2019-05-11T19:20:45.075Z,2.00
2019-05-11T19:23:04.365Z,2.37
2019-05-11T19:25:41.289Z,2.40
2019-05-11T19:28:41.213Z,2.33
2019-05-11T19:31:21.657Z,2.40
2019-05-11T19:33:52.281Z,2.70
2019-05-11T19:36:23.234Z,3.73
2019-05-11T19:38:53.926Z,2.40
2019-05-11T19:41:25.154Z,2.97
2019-05-11T19:44:04.242Z,2.90
2019-05-11T19:46:35.000Z,3.23
2019-05-11T19:49:05.630Z,3.37
2019-05-11T19:51:42.581Z,3.03
2019-05-11T19:54:12.695Z,3.20
2019-05-11T19:56:43.368Z,3.23
2019-05-11T19:59:14.101Z,3.07
2019-05-11T20:01:47.122Z,3.03
2019-05-11T20:04:18.819Z,2.90
2019-05-11T20:06:49.772Z,4.13
2019-05-11T20:09:23.959Z,3.70
2019-05-11T20:12:03.221Z,3.97
2019-05-11T20:14:37.279Z,4.43
2019-05-11T20:17:11.166Z,3.70
2019-05-11T20:19:43.661Z,4.80
2019-05-11T20:22:18.591Z,4.70
2019-05-11T20:24:50.660Z,5.17
2019-05-11T20:27:21.629Z,5.43
2019-05-11T20:29:57.991Z,5.17
2019-05-11T20:32:28.532Z,4.43
2019-05-11T20:34:59.123Z,4.87
2019-05-11T20:37:30.357Z,4.70
2019-05-11T20:40:03.343Z,5.00
2019-05-11T20:42:38.745Z,4.67
2019-05-11T20:45:18.183Z,4.50
2019-05-11T20:47:48.832Z,4.07
2019-05-11T20:50:22.231Z,4.23
2019-05-11T20:52:58.399Z,4.30
2019-05-11T20:55:33.777Z,4.20
2019-05-11T20:58:19.103Z,3.87
2019-05-11T21:00:51.350Z,3.30
2019-05-11T21:03:22.331Z,3.30
2019-05-11T21:05:58.660Z,3.67
2019-05-11T21:08:32.278Z,3.50
2019-05-11T21:11:02.995Z,3.83
2019-05-11T21:13:38.586Z,5.47
2019-05-11T21:16:12.385Z,3.43
2019-05-11T21:19:08.341Z,4.30
2019-05-11T21:21:58.745Z,4.90
2019-05-11T21:24:41.149Z,4.50
2019-05-11T21:27:13.865Z,4.67
2019-05-11T21:29:53.139Z,4.60
2019-05-11T21:32:27.761Z,4.77
2019-05-11T21:35:01.076Z,4.67
2019-05-11T21:37:32.097Z,5.33
2019-05-11T21:40:09.497Z,5.40
2019-05-11T21:42:48.975Z,6.40
2019-05-11T21:45:21.437Z,6.03
2019-05-11T21:47:54.175Z,6.90
2019-05-11T21:50:27.772Z,6.40
2019-05-11T21:52:58.964Z,6.63
2019-05-11T21:55:39.979Z,8.50
2019-05-11T21:58:10.936Z,7.00
2019-05-11T22:00:47.799Z,7.50
2019-05-11T22:03:28.072Z,8.27
2019-05-11T22:06:05.215Z,7.93
2019-05-11T22:08:52.949Z,8.80
2019-05-11T22:11:28.615Z,10.57
2019-05-11T22:14:08.094Z,9.87
2019-05-11T22:16:39.395Z,8.80
2019-05-11T22:19:11.240Z,9.00
2019-05-11T22:21:43.335Z,8.37
2019-05-11T22:24:14.215Z,11.67
2019-05-11T22:26:46.606Z,9.23
2019-05-11T22:29:20.635Z,9.47
2019-05-11T22:31:58.140Z,10.30
2019-05-11T22:34:29.549Z,10.57
2019-05-11T22:37:11.188Z,13.13
2019-05-11T22:39:49.630Z,9.70
2019-05-11T22:42:22.359Z,10.67
2019-05-11T22:44:52.959Z,10.47
2019-05-11T22:47:23.520Z,10.70
2019-05-11T22:49:54.068Z,10.57
2019-05-11T22:52:36.157Z,13.03
2019-05-11T22:55:02.894Z,11.67
2019-05-11T22:57:38.077Z,14.00
2019-05-11T23:00:11.657Z,11.17
2019-05-11T23:02:44.478Z,10.93
2019-05-11T23:05:17.850Z,12.43
2019-05-11T23:07:52.393Z,10.47
2019-05-11T23:10:24.365Z,11.30
2019-05-11T23:12:56.140Z,9.30
2019-05-11T23:15:27.145Z,9.40
2019-05-11T23:17:59.906Z,11.40
2019-05-11T23:20:30.362Z,11.70
2019-05-11T23:23:04.549Z,11.17
2019-05-11T23:25:35.583Z,10.53
2019-05-11T23:28:06.396Z,11.73
2019-05-11T23:30:38.911Z,11.03
2019-05-11T23:33:13.868Z,8.77
2019-05-11T23:35:48.542Z,9.70
2019-05-11T23:38:19.827Z,8.33
2019-05-11T23:40:50.843Z,10.93
2019-05-11T23:43:21.476Z,12.07
2019-05-11T23:45:52.678Z,9.93
2019-05-11T23:48:23.996Z,7.97
2019-05-11T23:50:55.216Z,10.10
2019-05-11T23:53:29.747Z,9.33
2019-05-11T23:56:11.095Z,10.67
2019-05-11T23:58:45.360Z,14.77
